»·PEaware :: DAL1581 KSLC-KSFO

DAL1581 :: KSLC-KSFO

FLIGHT INFORMATION

Flight Status: Arrived
Operator:
Delta Air Lines
More flights by this operator :: More flights under this callsign
Pilot: Joe P. (13940)
Aircraft: BOEING 737-700
(B737)
More flights by this aircraft type
Origin: KSLC Salt Lake City Intl
United States
Destination: KSFO San Francisco Intl
United States
More flights between these airports :: More routes between these airports
Route: +ZIONZ1 KROST OAL INYOE DYAMD4
File this flight plan on PilotEdge
Remarks: KOAK -PBN / A1B1C1D1L1O1S1 NAV / RNVD1E2A1 DOF / 180930 REG / N389DA EET / KZOA0050 RVR / 200 PER / C
Altitude:
(Current/Filed)
320ft
Speed:
(Current/Filed)
464kts
Departed: 29-Sep-18 05:34 PM
Arrived: 29-Sep-18 07:12 PM
Distance/Time
Traveled:
519nm/1:38
Distance/Time
To Go:
Arrived

Flight Plot

Page will automatically refresh every two minutes.

Flight plan parsing failed; only flown route is shown


Map Options




Map Legend


Flown Route
Filed Route
Departure Airport
Arrival Airport
Navaid (VOR, NDB)
Fix

Horizontal Profiles

Position Reports

Time Latitude Longitude Heading Altitude Ground
Speed
29-Sep-18 16:25 40.788533 -111.980747 280 4235ft 0kts
29-Sep-18 16:26 40.788533 -111.980747 280 4235ft 0kts
29-Sep-18 16:27 40.788533 -111.980747 280 4235ft 0kts
29-Sep-18 16:28 40.788533 -111.980747 280 4235ft 0kts
29-Sep-18 16:29 40.788533 -111.980747 280 4235ft 0kts
29-Sep-18 16:30 40.788533 -111.980747 280 4235ft 0kts
29-Sep-18 16:31 40.788533 -111.980747 280 4235ft 0kts
29-Sep-18 16:32 40.788533 -111.980747 280 4235ft 0kts
29-Sep-18 16:33 40.788533 -111.980747 280 4235ft 0kts
29-Sep-18 16:34 40.788533 -111.980747 280 4235ft 0kts
29-Sep-18 16:35 40.788533 -111.980747 280 4235ft 0kts
29-Sep-18 16:36 40.788533 -111.980747 280 4235ft 0kts
29-Sep-18 16:37 40.788533 -111.980747 280 4235ft 0kts
29-Sep-18 16:38 40.788533 -111.980747 280 4235ft 0kts
29-Sep-18 16:39 40.788533 -111.980747 280 4235ft 0kts
29-Sep-18 16:40 40.788533 -111.980747 280 4235ft 0kts
29-Sep-18 16:41 40.788533 -111.980747 280 4235ft 0kts
29-Sep-18 16:42 40.788533 -111.980747 280 4235ft 0kts
29-Sep-18 16:43 40.788533 -111.980747 280 4235ft 0kts
29-Sep-18 16:44 40.788533 -111.980747 280 4235ft 0kts
29-Sep-18 16:45 40.788533 -111.980747 280 4235ft 0kts
29-Sep-18 16:46 40.788533 -111.980747 280 4235ft 0kts
29-Sep-18 16:47 40.788533 -111.980747 280 4235ft 0kts
29-Sep-18 16:48 40.788533 -111.980747 280 4235ft 0kts
29-Sep-18 16:49 40.788533 -111.980747 280 4235ft 0kts
29-Sep-18 16:50 40.788533 -111.980747 280 4235ft 0kts
29-Sep-18 16:51 40.788533 -111.980747 280 4235ft 0kts
29-Sep-18 16:52 40.788533 -111.980747 280 4235ft 0kts
29-Sep-18 16:53 40.788533 -111.980747 280 4235ft 0kts
29-Sep-18 16:54 40.788533 -111.980747 280 4235ft 0kts
29-Sep-18 16:55 40.788533 -111.980747 280 4235ft 0kts
29-Sep-18 16:56 40.788533 -111.980747 280 4235ft 0kts
29-Sep-18 16:57 40.788533 -111.980747 280 4235ft 0kts
29-Sep-18 16:58 40.788533 -111.980747 280 4235ft 0kts
29-Sep-18 16:59 40.788533 -111.980747 280 4235ft 0kts
29-Sep-18 17:00 40.788533 -111.980747 280 4235ft 0kts
29-Sep-18 17:01 40.788533 -111.980747 280 4235ft 0kts
29-Sep-18 17:02 40.788533 -111.980747 280 4235ft 0kts
29-Sep-18 17:03 40.788533 -111.980747 280 4235ft 0kts
29-Sep-18 17:04 40.788533 -111.980747 280 4235ft 0kts
29-Sep-18 17:05 40.788533 -111.980747 280 4235ft 0kts
29-Sep-18 17:06 40.788533 -111.980747 280 4235ft 0kts
29-Sep-18 17:07 40.788533 -111.980747 280 4235ft 0kts
29-Sep-18 17:08 40.788533 -111.980747 280 4235ft 0kts
29-Sep-18 17:09 40.788533 -111.980747 280 4235ft 0kts
29-Sep-18 17:10 40.788533 -111.980747 280 4235ft 0kts
29-Sep-18 17:11 40.788533 -111.980747 280 4235ft 0kts
29-Sep-18 17:12 40.788533 -111.980747 280 4235ft 0kts
29-Sep-18 17:13 40.788533 -111.980747 280 4235ft 0kts
29-Sep-18 17:14 40.788533 -111.980747 280 4235ft 0kts
29-Sep-18 17:15 40.788533 -111.980747 280 4235ft 0kts
29-Sep-18 17:16 40.788533 -111.980747 280 4235ft 0kts
29-Sep-18 17:17 40.788533 -111.980747 280 4235ft 0kts
29-Sep-18 17:18 40.788533 -111.980747 280 4235ft 0kts
29-Sep-18 17:19 40.788467 -111.980293 280 4235ft 2kts
29-Sep-18 17:20 40.788362 -111.979584 280 4235ft 0kts
29-Sep-18 17:21 40.788362 -111.979584 280 4235ft 0kts
29-Sep-18 17:22 40.788363 -111.979586 280 4235ft 0kts
29-Sep-18 17:23 40.788363 -111.979587 280 4235ft 0kts
29-Sep-18 17:24 40.788363 -111.979589 280 4235ft 0kts
29-Sep-18 17:25 40.788363 -111.979591 280 4235ft 0kts
29-Sep-18 17:26 40.788364 -111.979593 280 4235ft 0kts
29-Sep-18 17:27 40.788364 -111.979594 280 4235ft 0kts
29-Sep-18 17:28 40.788372 -111.979640 283 4235ft 2kts
29-Sep-18 17:29 40.789723 -111.978019 86 4235ft 12kts
29-Sep-18 17:30 40.792619 -111.977476 355 4235ft 15kts
29-Sep-18 17:31 40.797554 -111.978031 354 4235ft 20kts
29-Sep-18 17:32 40.803302 -111.978714 352 4235ft 21kts
29-Sep-18 17:33 40.807433 -111.978727 54 4235ft 8kts
29-Sep-18 17:34 40.807500 -111.978515 76 4235ft 1kts
29-Sep-18 17:35 40.807160 -111.977079 140 4235ft 5kts
29-Sep-18 17:36 40.804128 -111.976557 175 4235ft 75kts
29-Sep-18 17:37 40.769678 -111.972427 177 5428ft 188kts
29-Sep-18 17:38 40.705947 -111.959287 172 7906ft 238kts
29-Sep-18 17:39 40.636125 -111.948494 182 10176ft 256kts
29-Sep-18 17:40 40.558093 -111.950049 183 12124ft 313kts
29-Sep-18 17:41 40.479469 -111.951582 183 13519ft 355kts
29-Sep-18 17:42 40.378325 -111.946667 180 16184ft 371kts
29-Sep-18 17:43 40.255729 -111.940516 188 18986ft 382kts
29-Sep-18 17:44 40.167238 -111.954663 191 20859ft 388kts
29-Sep-18 17:45 40.058620 -111.971020 190 22800ft 399kts
29-Sep-18 17:46 39.948263 -111.987105 191 23064ft 403kts
29-Sep-18 17:47 39.836527 -112.003352 191 24912ft 407kts
29-Sep-18 17:48 39.723063 -112.019929 191 26480ft 414kts
29-Sep-18 17:49 39.607162 -112.036749 191 27844ft 422kts
29-Sep-18 17:50 39.496111 -112.071469 221 29539ft 403kts
29-Sep-18 17:51 39.444160 -112.197040 246 31253ft 398kts
29-Sep-18 17:52 39.406392 -112.331964 248 31958ft 401kts
29-Sep-18 17:53 39.371894 -112.468280 249 31960ft 399kts
29-Sep-18 17:54 39.339055 -112.605283 250 31960ft 399kts
29-Sep-18 17:55 39.306387 -112.742185 249 31962ft 399kts
29-Sep-18 17:56 39.273567 -112.879220 249 31967ft 399kts
29-Sep-18 17:57 39.240704 -113.015802 249 31970ft 398kts
29-Sep-18 17:58 39.207605 -113.152621 249 31969ft 399kts
29-Sep-18 17:59 39.174442 -113.288949 249 31973ft 398kts
29-Sep-18 18:00 39.141160 -113.425018 249 31976ft 398kts
29-Sep-18 18:01 39.107688 -113.561039 248 31981ft 398kts
29-Sep-18 18:02 39.073990 -113.697215 248 31985ft 398kts
29-Sep-18 18:03 39.040211 -113.833007 248 31988ft 398kts
29-Sep-18 18:04 39.006283 -113.968564 248 31992ft 398kts
29-Sep-18 18:05 38.972350 -114.103531 248 31995ft 396kts
29-Sep-18 18:06 38.938214 -114.238365 248 31997ft 396kts
29-Sep-18 18:07 38.903954 -114.373012 248 31990ft 396kts
29-Sep-18 18:08 38.869617 -114.507229 247 31993ft 396kts
29-Sep-18 18:09 38.835115 -114.641369 247 31993ft 395kts
29-Sep-18 18:10 38.800501 -114.775230 247 31994ft 395kts
29-Sep-18 18:11 38.765840 -114.908556 247 31996ft 394kts
29-Sep-18 18:12 38.731084 -115.041575 247 31994ft 393kts
29-Sep-18 18:13 38.696111 -115.174656 247 31991ft 393kts
29-Sep-18 18:14 38.661184 -115.306895 247 31987ft 392kts
29-Sep-18 18:15 38.626127 -115.438927 246 31977ft 392kts
29-Sep-18 18:16 38.590822 -115.571213 246 31972ft 392kts
29-Sep-18 18:17 38.555529 -115.702780 246 31969ft 391kts
29-Sep-18 18:18 38.520342 -115.833785 246 31967ft 391kts
29-Sep-18 18:19 38.484816 -115.965368 246 31965ft 391kts
29-Sep-18 18:20 38.449152 -116.095752 246 31946ft 390kts
29-Sep-18 18:21 38.414411 -116.227153 250 31947ft 392kts
29-Sep-18 18:22 38.388477 -116.362464 250 31950ft 393kts
29-Sep-18 18:23 38.362300 -116.497682 250 31950ft 392kts
29-Sep-18 18:24 38.335832 -116.632382 250 31954ft 391kts
29-Sep-18 18:25 38.309760 -116.766773 250 31958ft 391kts
29-Sep-18 18:26 38.283309 -116.900890 250 31961ft 391kts
29-Sep-18 18:27 38.256577 -117.034976 250 31964ft 390kts
29-Sep-18 18:28 38.229729 -117.168613 249 31963ft 389kts
29-Sep-18 18:29 38.202733 -117.302084 249 31960ft 389kts
29-Sep-18 18:30 38.175697 -117.434900 249 31952ft 389kts
29-Sep-18 18:31 38.148476 -117.567828 249 31946ft 389kts
29-Sep-18 18:32 38.121062 -117.700803 249 31936ft 388kts
29-Sep-18 18:33 38.093503 -117.833676 249 31922ft 388kts
29-Sep-18 18:34 38.065842 -117.966232 249 31908ft 388kts
29-Sep-18 18:35 38.038099 -118.098375 249 31893ft 388kts
29-Sep-18 18:36 38.010096 -118.230986 248 31882ft 388kts
29-Sep-18 18:37 37.982028 -118.363091 248 31899ft 388kts
29-Sep-18 18:38 37.954086 -118.495068 248 31963ft 388kts
29-Sep-18 18:39 37.925642 -118.626763 248 31991ft 387kts
29-Sep-18 18:40 37.897263 -118.758133 250 32009ft 387kts
29-Sep-18 18:41 37.880306 -118.894136 254 32034ft 391kts
29-Sep-18 18:42 37.864932 -119.030004 254 32038ft 390kts
29-Sep-18 18:43 37.849181 -119.165502 254 32030ft 388kts
29-Sep-18 18:44 37.833739 -119.300475 254 32018ft 387kts
29-Sep-18 18:45 37.818064 -119.434985 254 32006ft 386kts
29-Sep-18 18:46 37.802142 -119.569075 253 32004ft 385kts
29-Sep-18 18:47 37.786062 -119.702908 253 31993ft 385kts
29-Sep-18 18:48 37.769797 -119.836884 253 31972ft 385kts
29-Sep-18 18:49 37.753369 -119.970887 253 31931ft 385kts
29-Sep-18 18:50 37.737158 -120.104067 253 31926ft 384kts
29-Sep-18 18:51 37.720454 -120.237003 253 31397ft 377kts
29-Sep-18 18:52 37.703944 -120.366823 253 29155ft 367kts
29-Sep-18 18:53 37.689074 -120.492508 254 27150ft 357kts
29-Sep-18 18:54 37.674686 -120.615168 255 25183ft 350kts
29-Sep-18 18:55 37.660279 -120.736465 255 23232ft 347kts
29-Sep-18 18:56 37.645947 -120.856324 256 21298ft 344kts
29-Sep-18 18:57 37.631459 -120.974834 256 19383ft 341kts
29-Sep-18 18:58 37.615808 -121.092650 256 17522ft 337kts
29-Sep-18 18:59 37.600123 -121.208652 256 15708ft 334kts
29-Sep-18 19:00 37.585904 -121.322586 258 14294ft 323kts
29-Sep-18 19:01 37.573158 -121.434292 258 12758ft 320kts
29-Sep-18 19:02 37.560243 -121.544524 258 11285ft 316kts
29-Sep-18 19:03 37.546106 -121.646519 250 10282ft 277kts
29-Sep-18 19:04 37.524669 -121.734591 249 9132ft 260kts
29-Sep-18 19:05 37.503935 -121.820884 249 8341ft 253kts
29-Sep-18 19:06 37.482769 -121.905074 248 7544ft 251kts
29-Sep-18 19:07 37.462214 -121.985506 257 6228ft 235kts
29-Sep-18 19:08 37.484687 -122.059739 298 5061ft 230kts
29-Sep-18 19:09 37.516254 -122.131344 294 3945ft 226kts
29-Sep-18 19:10 37.544084 -122.197398 293 2779ft 188kts
29-Sep-18 19:11 37.566414 -122.250509 295 1897ft 165kts
29-Sep-18 19:12 37.588109 -122.302138 295 1011ft 166kts
29-Sep-18 19:13 37.609495 -122.352876 294 126ft 157kts
29-Sep-18 19:14 37.621586 -122.382135 290 21ft 22kts
29-Sep-18 19:15 37.621351 -122.383139 206 21ft 0kts
29-Sep-18 19:16 37.621350 -122.383140 206 21ft 0kts
29-Sep-18 19:17 37.620686 -122.385209 298 21ft 17kts
29-Sep-18 19:18 37.616720 -122.380487 301 21ft 0kts
29-Sep-18 19:19 37.616720 -122.380487 301 21ft 0kts
29-Sep-18 19:20 37.616720 -122.380487 301 21ft 0kts

Navigation Log

Ident Type
Flight plan parsing failed, navigation log unavailable